sensor_id;sensor_type;location;lat;lon;timestamp;pressure;altitude;pressure_sealevel;temperature;humidity
60611;BME280;46439;51.164;13.572;2023-02-10T00:01:42;101796.45;;;-0.43;73.05
60611;BME280;46439;51.164;13.572;2023-02-10T00:04:12;101796.09;;;-0.47;73.01
60611;BME280;46439;51.164;13.572;2023-02-10T00:06:41;101798.14;;;-0.49;72.86
60611;BME280;46439;51.164;13.572;2023-02-10T00:09:12;101796.36;;;-0.53;72.92
60611;BME280;46439;51.164;13.572;2023-02-10T00:11:42;101794.84;;;-0.55;72.87
60611;BME280;46439;51.164;13.572;2023-02-10T00:14:28;101794.42;;;-0.53;72.89
60611;BME280;46439;51.164;13.572;2023-02-10T00:16:58;101793.80;;;-0.51;73.08
60611;BME280;46439;51.164;13.572;2023-02-10T00:19:48;101799.59;;;-0.55;72.89
60611;BME280;46439;51.164;13.572;2023-02-10T00:22:36;101798.11;;;-0.62;72.79
60611;BME280;46439;51.164;13.572;2023-02-10T00:25:06;101794.27;;;-0.63;72.85
60611;BME280;46439;51.164;13.572;2023-02-10T00:27:42;101792.64;;;-0.66;72.85
60611;BME280;46439;51.164;13.572;2023-02-10T00:30:13;101793.56;;;-0.72;72.67
60611;BME280;46439;51.164;13.572;2023-02-10T00:32:41;101799.05;;;-0.72;72.62
60611;BME280;46439;51.164;13.572;2023-02-10T00:35:10;101804.03;;;-0.73;72.69
60611;BME280;46439;51.164;13.572;2023-02-10T00:37:39;101802.70;;;-0.75;72.55
60611;BME280;46439;51.164;13.572;2023-02-10T00:40:09;101804.43;;;-0.74;72.55
60611;BME280;46439;51.164;13.572;2023-02-10T00:42:37;101806.27;;;-0.75;72.54
60611;BME280;46439;51.164;13.572;2023-02-10T00:45:07;101809.27;;;-0.80;72.73
60611;BME280;46439;51.164;13.572;2023-02-10T00:47:36;101812.79;;;-0.84;72.46
60611;BME280;46439;51.164;13.572;2023-02-10T00:50:06;101811.32;;;-0.87;72.46
60611;BME280;46439;51.164;13.572;2023-02-10T00:52:34;101816.19;;;-0.90;72.44
60611;BME280;46439;51.164;13.572;2023-02-10T00:55:04;101819.68;;;-0.93;72.39
60611;BME280;46439;51.164;13.572;2023-02-10T00:57:33;101819.38;;;-0.99;72.42
60611;BME280;46439;51.164;13.572;2023-02-10T01:00:02;101818.30;;;-1.04;72.37
60611;BME280;46439;51.164;13.572;2023-02-10T01:02:31;101818.77;;;-1.07;72.49
60611;BME280;46439;51.164;13.572;2023-02-10T01:04:59;101817.94;;;-1.03;72.39
60611;BME280;46439;51.164;13.572;2023-02-10T01:07:28;101822.64;;;-1.02;72.48
60611;BME280;46439;51.164;13.572;2023-02-10T01:09:57;101822.71;;;-1.04;72.44
60611;BME280;46439;51.164;13.572;2023-02-10T01:12:26;101822.13;;;-1.12;72.34
60611;BME280;46439;51.164;13.572;2023-02-10T01:14:54;101826.59;;;-1.22;72.07
60611;BME280;46439;51.164;13.572;2023-02-10T01:17:23;101830.35;;;-1.33;71.92
60611;BME280;46439;51.164;13.572;2023-02-10T01:19:51;101835.41;;;-1.37;71.71
60611;BME280;46439;51.164;13.572;2023-02-10T01:22:20;101840.73;;;-1.37;71.86
60611;BME280;46439;51.164;13.572;2023-02-10T01:24:49;101842.05;;;-1.45;71.83
60611;BME280;46439;51.164;13.572;2023-02-10T01:27:17;101842.80;;;-1.51;71.82
60611;BME280;46439;51.164;13.572;2023-02-10T01:29:46;101838.13;;;-1.53;71.87
60611;BME280;46439;51.164;13.572;2023-02-10T01:32:14;101832.80;;;-1.57;71.68
60611;BME280;46439;51.164;13.572;2023-02-10T01:34:43;101832.03;;;-1.66;71.56
60611;BME280;46439;51.164;13.572;2023-02-10T01:37:12;101829.71;;;-1.70;71.66
60611;BME280;46439;51.164;13.572;2023-02-10T01:39:41;101829.23;;;-1.66;71.70
60611;BME280;46439;51.164;13.572;2023-02-10T01:42:14;101831.64;;;-1.59;72.04
60611;BME280;46439;51.164;13.572;2023-02-10T01:47:51;101830.02;;;-1.53;72.28
60611;BME280;46439;51.164;13.572;2023-02-10T01:50:23;101833.53;;;-1.53;72.34
60611;BME280;46439;51.164;13.572;2023-02-10T01:52:52;101832.12;;;-1.58;72.05
60611;BME280;46439;51.164;13.572;2023-02-10T01:55:25;101828.27;;;-1.64;71.84
60611;BME280;46439;51.164;13.572;2023-02-10T01:57:57;101828.42;;;-1.68;71.79
60611;BME280;46439;51.164;13.572;2023-02-10T02:00:26;101831.23;;;-1.68;71.82
60611;BME280;46439;51.164;13.572;2023-02-10T02:02:54;101824.00;;;-1.68;71.91
60611;BME280;46439;51.164;13.572;2023-02-10T02:05:31;101827.23;;;-1.64;72.02
60611;BME280;46439;51.164;13.572;2023-02-10T02:08:04;101833.66;;;-1.57;72.18
60611;BME280;46439;51.164;13.572;2023-02-10T02:10:45;101837.73;;;-1.57;72.30
60611;BME280;46439;51.164;13.572;2023-02-10T02:13:24;101837.23;;;-1.58;72.30
60611;BME280;46439;51.164;13.572;2023-02-10T02:16:01;101836.17;;;-1.53;72.29
60611;BME280;46439;51.164;13.572;2023-02-10T02:18:36;101836.77;;;-1.50;72.33
60611;BME280;46439;51.164;13.572;2023-02-10T02:21:44;101839.81;;;-1.42;72.69
60611;BME280;46439;51.164;13.572;2023-02-10T02:27:27;101847.96;;;-1.27;72.56
60611;BME280;46439;51.164;13.572;2023-02-10T02:30:14;101843.75;;;-1.23;72.73
60611;BME280;46439;51.164;13.572;2023-02-10T02:32:50;101848.25;;;-1.20;72.59
60611;BME280;46439;51.164;13.572;2023-02-10T02:35:25;101842.56;;;-1.15;72.85
60611;BME280;46439;51.164;13.572;2023-02-10T02:37:56;101840.38;;;-1.13;72.90
60611;BME280;46439;51.164;13.572;2023-02-10T02:40:25;101840.86;;;-1.07;72.84
60611;BME280;46439;51.164;13.572;2023-02-10T02:42:53;101840.23;;;-1.04;72.83
60611;BME280;46439;51.164;13.572;2023-02-10T02:45:27;101839.59;;;-0.97;72.95
60611;BME280;46439;51.164;13.572;2023-02-10T02:48:15;101836.67;;;-0.90;73.05
60611;BME280;46439;51.164;13.572;2023-02-10T02:50:53;101839.30;;;-0.84;73.12
60611;BME280;46439;51.164;13.572;2023-02-10T02:53:29;101832.35;;;-0.83;73.23
60611;BME280;46439;51.164;13.572;2023-02-10T02:56:06;101830.27;;;-0.79;73.20
60611;BME280;46439;51.164;13.572;2023-02-10T02:58:45;101828.28;;;-0.69;73.38
60611;BME280;46439;51.164;13.572;2023-02-10T03:01:18;101831.02;;;-0.62;73.52
60611;BME280;46439;51.164;13.572;2023-02-10T03:03:50;101831.51;;;-0.57;73.42
60611;BME280;46439;51.164;13.572;2023-02-10T03:06:19;101828.67;;;-0.52;73.37
60611;BME280;46439;51.164;13.572;2023-02-10T03:08:48;101830.70;;;-0.45;73.56
60611;BME280;46439;51.164;13.572;2023-02-10T03:11:17;101831.13;;;-0.38;73.61
60611;BME280;46439;51.164;13.572;2023-02-10T03:13:45;101829.16;;;-0.29;73.68
60611;BME280;46439;51.164;13.572;2023-02-10T03:16:14;101830.95;;;-0.21;73.93
60611;BME280;46439;51.164;13.572;2023-02-10T03:18:42;101832.50;;;-0.15;73.91
60611;BME280;46439;51.164;13.572;2023-02-10T03:21:11;101831.07;;;-0.11;73.79
60611;BME280;46439;51.164;13.572;2023-02-10T03:23:39;101837.05;;;-0.06;73.77
60611;BME280;46439;51.164;13.572;2023-02-10T03:26:08;101838.44;;;-0.01;74.01
60611;BME280;46439;51.164;13.572;2023-02-10T03:28:36;101844.70;;;0.02;73.95
60611;BME280;46439;51.164;13.572;2023-02-10T03:31:06;101846.89;;;0.09;73.82
60611;BME280;46439;51.164;13.572;2023-02-10T03:33:35;101841.80;;;0.16;73.97
60611;BME280;46439;51.164;13.572;2023-02-10T03:36:04;101847.77;;;0.25;74.26
60611;BME280;46439;51.164;13.572;2023-02-10T03:38:33;101851.95;;;0.31;74.08
60611;BME280;46439;51.164;13.572;2023-02-10T03:41:01;101846.06;;;0.36;74.30
60611;BME280;46439;51.164;13.572;2023-02-10T03:43:30;101847.86;;;0.40;74.13
60611;BME280;46439;51.164;13.572;2023-02-10T03:46:01;101849.18;;;0.43;74.12
60611;BME280;46439;51.164;13.572;2023-02-10T03:48:30;101849.80;;;0.44;74.17
60611;BME280;46439;51.164;13.572;2023-02-10T03:51:00;101856.69;;;0.45;74.10
60611;BME280;46439;51.164;13.572;2023-02-10T03:53:29;101863.91;;;0.46;73.85
60611;BME280;46439;51.164;13.572;2023-02-10T03:55:58;101862.55;;;0.45;73.89
60611;BME280;46439;51.164;13.572;2023-02-10T03:58:27;101864.17;;;0.44;73.94
60611;BME280;46439;51.164;13.572;2023-02-10T04:00:55;101872.09;;;0.45;73.81
60611;BME280;46439;51.164;13.572;2023-02-10T04:03:24;101881.66;;;0.49;73.89
60611;BME280;46439;51.164;13.572;2023-02-10T04:05:52;101883.02;;;0.54;74.00
60611;BME280;46439;51.164;13.572;2023-02-10T04:08:20;101891.57;;;0.57;74.38
60611;BME280;46439;51.164;13.572;2023-02-10T04:10:49;101896.07;;;0.56;74.01
60611;BME280;46439;51.164;13.572;2023-02-10T04:13:17;101898.67;;;0.48;73.74
60611;BME280;46439;51.164;13.572;2023-02-10T04:15:46;101894.16;;;0.42;73.83
60611;BME280;46439;51.164;13.572;2023-02-10T04:18:16;101885.51;;;0.42;73.75
60611;BME280;46439;51.164;13.572;2023-02-10T04:20:44;101882.66;;;0.42;73.67
60611;BME280;46439;51.164;13.572;2023-02-10T04:23:12;101884.30;;;0.45;73.75
60611;BME280;46439;51.164;13.572;2023-02-10T04:25:41;101892.72;;;0.43;73.61
60611;BME280;46439;51.164;13.572;2023-02-10T04:28:09;101891.33;;;0.43;73.40
60611;BME280;46439;51.164;13.572;2023-02-10T04:30:37;101886.53;;;0.43;73.52
60611;BME280;46439;51.164;13.572;2023-02-10T04:33:06;101893.77;;;0.48;73.69
60611;BME280;46439;51.164;13.572;2023-02-10T04:35:34;101895.94;;;0.51;73.56
60611;BME280;46439;51.164;13.572;2023-02-10T04:38:03;101900.80;;;0.57;73.75
60611;BME280;46439;51.164;13.572;2023-02-10T04:40:32;101909.14;;;0.69;74.16
60611;BME280;46439;51.164;13.572;2023-02-10T04:43:00;101913.14;;;0.71;74.28
60611;BME280;46439;51.164;13.572;2023-02-10T04:45:29;101918.73;;;0.72;74.03
60611;BME280;46439;51.164;13.572;2023-02-10T04:47:57;101919.13;;;0.71;74.05
60611;BME280;46439;51.164;13.572;2023-02-10T04:50:26;101914.00;;;0.75;74.02
60611;BME280;46439;51.164;13.572;2023-02-10T04:52:54;101915.97;;;0.79;73.76
60611;BME280;46439;51.164;13.572;2023-02-10T04:55:23;101914.73;;;0.87;73.90
60611;BME280;46439;51.164;13.572;2023-02-10T04:57:51;101914.02;;;0.95;74.07
60611;BME280;46439;51.164;13.572;2023-02-10T05:00:20;101911.39;;;0.99;74.03
60611;BME280;46439;51.164;13.572;2023-02-10T05:02:49;101908.85;;;0.95;74.17
60611;BME280;46439;51.164;13.572;2023-02-10T05:05:18;101906.51;;;0.96;74.05
60611;BME280;46439;51.164;13.572;2023-02-10T05:07:47;101907.43;;;1.00;74.00
60611;BME280;46439;51.164;13.572;2023-02-10T05:10:15;101911.78;;;1.05;74.31
60611;BME280;46439;51.164;13.572;2023-02-10T05:12:44;101916.27;;;1.12;74.16
60611;BME280;46439;51.164;13.572;2023-02-10T05:15:12;101916.80;;;1.17;74.35
60611;BME280;46439;51.164;13.572;2023-02-10T05:17:42;101916.44;;;1.20;74.40
60611;BME280;46439;51.164;13.572;2023-02-10T05:20:11;101920.47;;;1.25;74.52
60611;BME280;46439;51.164;13.572;2023-02-10T05:22:40;101924.37;;;1.25;74.35
60611;BME280;46439;51.164;13.572;2023-02-10T05:25:10;101927.78;;;1.24;74.28
60611;BME280;46439;51.164;13.572;2023-02-10T05:27:38;101931.11;;;1.25;74.21
60611;BME280;46439;51.164;13.572;2023-02-10T05:30:09;101933.27;;;1.29;74.32
60611;BME280;46439;51.164;13.572;2023-02-10T05:32:38;101931.23;;;1.30;74.41
60611;BME280;46439;51.164;13.572;2023-02-10T05:35:08;101939.73;;;1.26;74.07
60611;BME280;46439;51.164;13.572;2023-02-10T05:37:37;101941.98;;;1.20;74.10
60611;BME280;46439;51.164;13.572;2023-02-10T05:40:07;101942.32;;;1.17;73.86
60611;BME280;46439;51.164;13.572;2023-02-10T05:42:36;101945.33;;;1.13;73.97
60611;BME280;46439;51.164;13.572;2023-02-10T05:45:06;101945.38;;;1.08;73.72
60611;BME280;46439;51.164;13.572;2023-02-10T05:47:34;101948.58;;;1.08;73.72
60611;BME280;46439;51.164;13.572;2023-02-10T05:50:03;101943.70;;;1.14;73.90
60611;BME280;46439;51.164;13.572;2023-02-10T05:52:32;101945.52;;;1.17;74.14
60611;BME280;46439;51.164;13.572;2023-02-10T05:55:00;101949.84;;;1.15;74.27
60611;BME280;46439;51.164;13.572;2023-02-10T05:57:29;101953.73;;;1.11;73.86
60611;BME280;46439;51.164;13.572;2023-02-10T05:59:57;101955.34;;;1.03;73.66
60611;BME280;46439;51.164;13.572;2023-02-10T06:02:26;101960.02;;;0.97;73.69
60611;BME280;46439;51.164;13.572;2023-02-10T06:04:54;101966.06;;;0.97;73.66
60611;BME280;46439;51.164;13.572;2023-02-10T06:07:23;101968.02;;;0.97;73.46
60611;BME280;46439;51.164;13.572;2023-02-10T06:09:51;101972.36;;;0.99;73.78
60611;BME280;46439;51.164;13.572;2023-02-10T06:12:19;101973.54;;;1.04;73.61
60611;BME280;46439;51.164;13.572;2023-02-10T06:14:48;101973.05;;;1.07;73.98
60611;BME280;46439;51.164;13.572;2023-02-10T06:17:16;101967.05;;;1.03;73.87
60611;BME280;46439;51.164;13.572;2023-02-10T06:19:45;101970.82;;;0.97;73.80
60611;BME280;46439;51.164;13.572;2023-02-10T06:22:14;101964.44;;;0.93;73.52
60611;BME280;46439;51.164;13.572;2023-02-10T06:24:42;101963.44;;;0.92;73.77
60611;BME280;46439;51.164;13.572;2023-02-10T06:27:11;101961.29;;;0.97;73.59
60611;BME280;46439;51.164;13.572;2023-02-10T06:29:39;101961.69;;;1.04;74.01
60611;BME280;46439;51.164;13.572;2023-02-10T06:32:07;101969.16;;;1.15;73.91
60611;BME280;46439;51.164;13.572;2023-02-10T06:34:36;101968.30;;;1.19;74.33
60611;BME280;46439;51.164;13.572;2023-02-10T06:37:04;101971.67;;;1.22;74.43
60611;BME280;46439;51.164;13.572;2023-02-10T06:39:33;101974.14;;;1.27;74.23
60611;BME280;46439;51.164;13.572;2023-02-10T06:42:01;101984.06;;;1.31;74.24
60611;BME280;46439;51.164;13.572;2023-02-10T06:44:30;101991.65;;;1.36;74.17
60611;BME280;46439;51.164;13.572;2023-02-10T06:46:58;101990.19;;;1.37;74.24
60611;BME280;46439;51.164;13.572;2023-02-10T06:49:27;101992.73;;;1.35;74.25
60611;BME280;46439;51.164;13.572;2023-02-10T06:51:55;101993.55;;;1.37;74.22
60611;BME280;46439;51.164;13.572;2023-02-10T06:54:25;102002.68;;;1.43;74.39
60611;BME280;46439;51.164;13.572;2023-02-10T06:56:54;102009.77;;;1.47;74.59
60611;BME280;46439;51.164;13.572;2023-02-10T06:59:24;102016.67;;;1.48;74.23
60611;BME280;46439;51.164;13.572;2023-02-10T07:01:52;102014.55;;;1.47;74.11
60611;BME280;46439;51.164;13.572;2023-02-10T07:04:28;102016.17;;;1.47;74.24
60611;BME280;46439;51.164;13.572;2023-02-10T07:06:57;102017.42;;;1.43;74.29
60611;BME280;46439;51.164;13.572;2023-02-10T07:09:26;102023.16;;;1.41;73.91
60611;BME280;46439;51.164;13.572;2023-02-10T07:11:54;102021.13;;;1.39;74.08
60611;BME280;46439;51.164;13.572;2023-02-10T07:14:23;102021.86;;;1.39;74.06
60611;BME280;46439;51.164;13.572;2023-02-10T07:16:52;102023.98;;;1.43;74.10
60611;BME280;46439;51.164;13.572;2023-02-10T07:19:21;102031.90;;;1.44;74.16
60611;BME280;46439;51.164;13.572;2023-02-10T07:21:49;102038.67;;;1.48;74.30
60611;BME280;46439;51.164;13.572;2023-02-10T07:24:18;102046.31;;;1.51;74.23
60611;BME280;46439;51.164;13.572;2023-02-10T07:26:46;102040.36;;;1.49;73.98
60611;BME280;46439;51.164;13.572;2023-02-10T07:29:15;102033.68;;;1.48;74.42
60611;BME280;46439;51.164;13.572;2023-02-10T07:31:43;102023.54;;;1.53;74.29
60611;BME280;46439;51.164;13.572;2023-02-10T07:34:12;102021.56;;;1.57;74.46
60611;BME280;46439;51.164;13.572;2023-02-10T07:36:40;102018.83;;;1.66;74.43
60611;BME280;46439;51.164;13.572;2023-02-10T07:39:09;102022.01;;;1.71;74.63
60611;BME280;46439;51.164;13.572;2023-02-10T07:41:39;102030.02;;;1.70;74.54
60611;BME280;46439;51.164;13.572;2023-02-10T07:44:07;102031.70;;;1.68;74.06
60611;BME280;46439;51.164;13.572;2023-02-10T07:46:36;102034.31;;;1.65;74.33
60611;BME280;46439;51.164;13.572;2023-02-10T07:49:04;102030.52;;;1.59;74.13
60611;BME280;46439;51.164;13.572;2023-02-10T07:51:33;102025.81;;;1.58;74.10
60611;BME280;46439;51.164;13.572;2023-02-10T07:54:02;102028.59;;;1.59;73.99
60611;BME280;46439;51.164;13.572;2023-02-10T07:56:30;102041.79;;;1.57;74.19
60611;BME280;46439;51.164;13.572;2023-02-10T07:58:59;102045.44;;;1.55;74.07
60611;BME280;46439;51.164;13.572;2023-02-10T08:01:27;102053.38;;;1.52;73.96
60611;BME280;46439;51.164;13.572;2023-02-10T08:03:56;102054.71;;;1.54;73.69
60611;BME280;46439;51.164;13.572;2023-02-10T08:06:26;102050.40;;;1.55;74.00
60611;BME280;46439;51.164;13.572;2023-02-10T08:08:55;102047.49;;;1.57;74.07
60611;BME280;46439;51.164;13.572;2023-02-10T08:11:23;102052.33;;;1.56;73.95
60611;BME280;46439;51.164;13.572;2023-02-10T08:13:52;102056.36;;;1.57;74.16
60611;BME280;46439;51.164;13.572;2023-02-10T08:16:20;102050.83;;;1.58;73.79
60611;BME280;46439;51.164;13.572;2023-02-10T08:18:49;102048.06;;;1.60;74.03
60611;BME280;46439;51.164;13.572;2023-02-10T08:21:17;102034.13;;;1.66;74.12
60611;BME280;46439;51.164;13.572;2023-02-10T08:23:46;102030.60;;;1.69;73.89
60611;BME280;46439;51.164;13.572;2023-02-10T08:26:14;102037.86;;;1.69;74.13
60611;BME280;46439;51.164;13.572;2023-02-10T08:28:43;102045.36;;;1.72;74.04
60611;BME280;46439;51.164;13.572;2023-02-10T08:31:11;102053.02;;;1.76;74.32
60611;BME280;46439;51.164;13.572;2023-02-10T08:33:40;102060.01;;;1.75;74.42
60611;BME280;46439;51.164;13.572;2023-02-10T08:36:11;102058.71;;;1.79;74.42
60611;BME280;46439;51.164;13.572;2023-02-10T08:38:40;102063.74;;;2.09;74.79
60611;BME280;46439;51.164;13.572;2023-02-10T08:41:09;102066.50;;;2.15;74.93
60611;BME280;46439;51.164;13.572;2023-02-10T08:43:38;102070.17;;;2.12;75.14
60611;BME280;46439;51.164;13.572;2023-02-10T08:46:06;102076.30;;;2.10;74.89
60611;BME280;46439;51.164;13.572;2023-02-10T08:48:35;102081.17;;;2.12;74.73
60611;BME280;46439;51.164;13.572;2023-02-10T08:51:07;102088.80;;;2.13;74.42
60611;BME280;46439;51.164;13.572;2023-02-10T08:53:35;102084.64;;;2.10;74.46
60611;BME280;46439;51.164;13.572;2023-02-10T08:56:07;102083.73;;;2.10;74.83
60611;BME280;46439;51.164;13.572;2023-02-10T08:58:36;102079.45;;;2.11;74.59
60611;BME280;46439;51.164;13.572;2023-02-10T09:01:11;102082.34;;;2.10;74.52
60611;BME280;46439;51.164;13.572;2023-02-10T09:03:40;102088.88;;;2.15;74.45
60611;BME280;46439;51.164;13.572;2023-02-10T09:06:15;102089.77;;;2.19;74.33
60611;BME280;46439;51.164;13.572;2023-02-10T09:08:44;102095.50;;;2.25;74.86
60611;BME280;46439;51.164;13.572;2023-02-10T09:11:15;102102.41;;;2.29;74.85
60611;BME280;46439;51.164;13.572;2023-02-10T09:13:44;102102.33;;;2.34;75.01
60611;BME280;46439;51.164;13.572;2023-02-10T09:16:13;102103.52;;;2.36;74.91
60611;BME280;46439;51.164;13.572;2023-02-10T09:18:41;102099.48;;;2.39;74.71
60611;BME280;46439;51.164;13.572;2023-02-10T09:21:10;102101.23;;;2.39;75.11
60611;BME280;46439;51.164;13.572;2023-02-10T09:23:38;102105.05;;;2.41;75.22
60611;BME280;46439;51.164;13.572;2023-02-10T09:26:07;102106.71;;;2.47;74.93
60611;BME280;46439;51.164;13.572;2023-02-10T09:28:36;102103.51;;;2.51;75.24
60611;BME280;46439;51.164;13.572;2023-02-10T09:31:07;102099.37;;;2.52;75.18
60611;BME280;46439;51.164;13.572;2023-02-10T09:33:35;102103.06;;;2.53;74.88
60611;BME280;46439;51.164;13.572;2023-02-10T09:36:05;102105.13;;;2.55;75.08
60611;BME280;46439;51.164;13.572;2023-02-10T09:38:34;102106.30;;;2.56;75.29
60611;BME280;46439;51.164;13.572;2023-02-10T09:41:09;102104.41;;;2.58;74.96
60611;BME280;46439;51.164;13.572;2023-02-10T09:44:00;102102.90;;;2.64;75.30
60611;BME280;46439;51.164;13.572;2023-02-10T09:46:38;102100.59;;;2.67;75.28
60611;BME280;46439;51.164;13.572;2023-02-10T09:49:21;102099.77;;;2.69;75.14
60611;BME280;46439;51.164;13.572;2023-02-10T09:52:02;102097.13;;;2.73;75.27
60611;BME280;46439;51.164;13.572;2023-02-10T09:54:36;102091.98;;;2.80;75.47
60611;BME280;46439;51.164;13.572;2023-02-10T09:57:08;102091.64;;;2.83;75.36
60611;BME280;46439;51.164;13.572;2023-02-10T09:59:39;102091.73;;;2.81;75.34
60611;BME280;46439;51.164;13.572;2023-02-10T10:02:15;102093.46;;;2.79;75.26
60611;BME280;46439;51.164;13.572;2023-02-10T10:04:46;102092.73;;;2.79;74.80
60611;BME280;46439;51.164;13.572;2023-02-10T10:07:21;102091.35;;;2.78;74.99
60611;BME280;46439;51.164;13.572;2023-02-10T10:10:00;102091.43;;;2.76;74.94
60611;BME280;46439;51.164;13.572;2023-02-10T10:12:30;102094.71;;;2.78;75.23
60611;BME280;46439;51.164;13.572;2023-02-10T10:14:58;102098.30;;;2.81;75.30
60611;BME280;46439;51.164;13.572;2023-02-10T10:17:46;102095.25;;;2.82;75.02
60611;BME280;46439;51.164;13.572;2023-02-10T10:23:15;102093.11;;;2.89;75.24
60611;BME280;46439;51.164;13.572;2023-02-10T10:26:02;102101.31;;;2.93;75.30
60611;BME280;46439;51.164;13.572;2023-02-10T10:28:45;102103.27;;;2.93;74.95
60611;BME280;46439;51.164;13.572;2023-02-10T10:31:19;102099.40;;;2.88;75.01
60611;BME280;46439;51.164;13.572;2023-02-10T10:33:52;102100.34;;;2.83;74.89
60611;BME280;46439;51.164;13.572;2023-02-10T10:36:27;102098.61;;;2.82;74.83
60611;BME280;46439;51.164;13.572;2023-02-10T10:39:06;102097.44;;;2.81;75.05
60611;BME280;46439;51.164;13.572;2023-02-10T10:41:43;102095.21;;;2.83;74.77
60611;BME280;46439;51.164;13.572;2023-02-10T10:44:20;102097.23;;;2.78;74.86
60611;BME280;46439;51.164;13.572;2023-02-10T10:47:03;102099.76;;;2.74;74.71
60611;BME280;46439;51.164;13.572;2023-02-10T10:49:48;102097.81;;;2.73;74.90
60611;BME280;46439;51.164;13.572;2023-02-10T10:52:28;102101.05;;;2.73;74.77
60611;BME280;46439;51.164;13.572;2023-02-10T10:55:05;102102.77;;;2.74;74.75
60611;BME280;46439;51.164;13.572;2023-02-10T10:57:37;102107.08;;;2.73;74.93
60611;BME280;46439;51.164;13.572;2023-02-10T11:00:15;102101.66;;;2.71;74.91
60611;BME280;46439;51.164;13.572;2023-02-10T11:02:55;102106.48;;;2.63;74.75
60611;BME280;46439;51.164;13.572;2023-02-10T11:05:28;102102.02;;;2.56;74.66
60611;BME280;46439;51.164;13.572;2023-02-10T11:07:58;102100.75;;;2.53;74.52
60611;BME280;46439;51.164;13.572;2023-02-10T11:10:33;102099.41;;;2.51;74.75
60611;BME280;46439;51.164;13.572;2023-02-10T11:13:03;102091.66;;;2.49;74.56
60611;BME280;46439;51.164;13.572;2023-02-10T11:15:38;102091.98;;;2.50;74.62
60611;BME280;46439;51.164;13.572;2023-02-10T11:18:13;102093.82;;;2.53;74.56
60611;BME280;46439;51.164;13.572;2023-02-10T11:20:54;102101.38;;;2.55;74.90
60611;BME280;46439;51.164;13.572;2023-02-10T11:23:24;102100.48;;;2.59;74.80
60611;BME280;46439;51.164;13.572;2023-02-10T11:26:00;102096.20;;;2.62;74.74
60611;BME280;46439;51.164;13.572;2023-02-10T11:28:30;102094.95;;;2.66;74.78
60611;BME280;46439;51.164;13.572;2023-02-10T11:31:02;102093.33;;;2.70;74.85
60611;BME280;46439;51.164;13.572;2023-02-10T11:33:33;102089.41;;;2.78;75.43
60611;BME280;46439;51.164;13.572;2023-02-10T11:36:06;102085.95;;;2.86;75.16
60611;BME280;46439;51.164;13.572;2023-02-10T11:38:37;102084.17;;;2.94;75.18
60611;BME280;46439;51.164;13.572;2023-02-10T11:41:08;102076.34;;;3.01;75.36
60611;BME280;46439;51.164;13.572;2023-02-10T11:43:41;102079.62;;;3.07;75.46
60611;BME280;46439;51.164;13.572;2023-02-10T11:46:21;102083.11;;;3.15;75.67
60611;BME280;46439;51.164;13.572;2023-02-10T11:48:56;102087.19;;;3.22;75.50
60611;BME280;46439;51.164;13.572;2023-02-10T11:51:26;102086.82;;;3.29;75.53
60611;BME280;46439;51.164;13.572;2023-02-10T11:53:56;102084.07;;;3.34;75.54
60611;BME280;46439;51.164;13.572;2023-02-10T11:56:29;102080.97;;;3.39;75.74
60611;BME280;46439;51.164;13.572;2023-02-10T11:59:30;102081.00;;;3.45;75.45
60611;BME280;46439;51.164;13.572;2023-02-10T12:02:08;102076.15;;;3.50;75.62
60611;BME280;46439;51.164;13.572;2023-02-10T12:05:00;102069.36;;;3.57;75.72
60611;BME280;46439;51.164;13.572;2023-02-10T12:07:44;102061.21;;;3.59;75.91
60611;BME280;46439;51.164;13.572;2023-02-10T12:10:20;102061.33;;;3.64;76.18
60611;BME280;46439;51.164;13.572;2023-02-10T12:13:00;102058.05;;;3.65;75.90
60611;BME280;46439;51.164;13.572;2023-02-10T12:15:37;102047.94;;;3.68;75.92
60611;BME280;46439;51.164;13.572;2023-02-10T12:18:31;102047.05;;;3.75;76.11
60611;BME280;46439;51.164;13.572;2023-02-10T12:21:17;102047.65;;;3.83;76.20
60611;BME280;46439;51.164;13.572;2023-02-10T12:23:55;102053.62;;;3.88;76.22
60611;BME280;46439;51.164;13.572;2023-02-10T12:26:30;102055.10;;;3.91;75.89
60611;BME280;46439;51.164;13.572;2023-02-10T12:29:16;102058.18;;;3.96;76.10
60611;BME280;46439;51.164;13.572;2023-02-10T12:31:56;102056.98;;;4.01;76.22
60611;BME280;46439;51.164;13.572;2023-02-10T12:37:42;102051.02;;;4.16;76.24
60611;BME280;46439;51.164;13.572;2023-02-10T12:40:31;102046.83;;;4.21;76.26
60611;BME280;46439;51.164;13.572;2023-02-10T12:43:13;102049.06;;;4.28;76.43
60611;BME280;46439;51.164;13.572;2023-02-10T12:45:54;102043.30;;;4.39;76.42
60611;BME280;46439;51.164;13.572;2023-02-10T12:48:31;102041.38;;;4.48;76.65
60611;BME280;46439;51.164;13.572;2023-02-10T12:51:18;102041.67;;;4.49;76.65
60611;BME280;46439;51.164;13.572;2023-02-10T12:53:50;102034.02;;;4.49;76.51
60611;BME280;46439;51.164;13.572;2023-02-10T12:56:24;102038.11;;;4.49;76.35
60611;BME280;46439;51.164;13.572;2023-02-10T12:58:58;102028.29;;;4.49;76.31
60611;BME280;46439;51.164;13.572;2023-02-10T13:01:33;102023.92;;;4.51;76.21
60611;BME280;46439;51.164;13.572;2023-02-10T13:04:10;102015.27;;;4.52;76.16
60611;BME280;46439;51.164;13.572;2023-02-10T13:06:44;102010.63;;;4.56;76.31
60611;BME280;46439;51.164;13.572;2023-02-10T13:09:19;102010.45;;;4.62;76.27
60611;BME280;46439;51.164;13.572;2023-02-10T13:11:58;102014.21;;;4.67;76.45
60611;BME280;46439;51.164;13.572;2023-02-10T13:14:30;102014.21;;;4.70;76.57
60611;BME280;46439;51.164;13.572;2023-02-10T13:17:00;102015.60;;;4.80;76.70
60611;BME280;46439;51.164;13.572;2023-02-10T13:19:37;102011.36;;;4.86;76.80
60611;BME280;46439;51.164;13.572;2023-02-10T13:22:13;102006.96;;;4.91;76.58
60611;BME280;46439;51.164;13.572;2023-02-10T13:24:50;102000.30;;;4.98;76.77